Results: 2021 Europe Triathlon Championships Valencia | 65-69 Male AG Sprint
Valencia, Spain • 25 Sep, 2021
Pos First Name Last Name YOB Country Start
Num
Time Swim T1 Bike T2 Run
1 Kari Aho 1956 SWE 1389 01:10:44 00:12:36 00:00:52 00:33:06 00:01:50 00:22:20
2 David Neal 1956 GBR 1380 01:15:17 00:16:20 00:01:15 00:34:17 00:02:02 00:21:23
3 Walter Decombes 1955 BEL 1392 01:16:17 00:17:53 00:01:30 00:32:42 00:01:53 00:22:19
4 Alfred Fridrik 1955 AUT 1390 01:16:47 00:15:10 00:01:00 00:33:42 00:01:36 00:25:19
5 Bernd Stegmann 1952 GER 1386 01:16:48 00:15:07 00:01:23 00:34:43 00:01:56 00:23:39
6 Alan Dewey 1952 GBR 1375 01:17:03 00:16:30 00:01:26 00:33:40 00:02:20 00:23:07
7 Jose Maria Pardo Gimeno 1956 ESP 1372 01:18:55 00:16:32 00:01:13 00:35:45 00:03:18 00:22:07
8 David Sutherland 1956 GBR 1384 01:19:36 00:15:06 00:00:51 00:37:15 00:01:43 00:24:41
9 Simon Montgomery 1954 GBR 1379 01:20:44 00:16:22 00:01:23 00:37:08 00:01:44 00:24:07
10 Juan Jose Gil Castaño 1955 ESP 1371 01:21:46 00:17:08 00:00:58 00:36:28 00:02:04 00:25:08
11 Phil King 1956 GBR 1378 01:21:46 00:17:49 00:01:15 00:36:51 00:02:08 00:23:43
12 Philip Kidd 1952 GBR 1377 01:21:57 00:17:59 00:01:09 00:37:37 00:02:01 00:23:11
13 Neil Rowland Hall 1954 GBR 1382 01:22:21 00:16:45 00:00:56 00:35:13 00:01:53 00:27:34
14 Malcolm Harrison 1955 GBR 1376 01:23:18 00:16:01 00:00:57 00:36:31 00:01:57 00:27:52
15 Thomas Palmer 1955 GBR 1381 01:23:35 00:16:36 00:01:20 00:37:24 00:02:10 00:26:05
16 Peter Williams 1954 GBR 1385 01:23:43 00:20:50 00:01:00 00:34:58 00:01:42 00:25:13
17 Roger Burrows 1955 GBR 1374 01:24:12 00:18:33 00:01:13 00:37:49 00:01:56 00:24:41
18 Józef Makowicz 1956 POL 1388 01:25:17 00:18:29 00:02:28 00:36:15 00:03:29 00:24:36
19 Clive Bullock 1955 GBR 1373 01:25:23 00:16:46 00:01:25 00:36:58 00:02:23 00:27:51
20 Robert Skinner 1955 GBR 1383 01:26:36 00:17:22 00:01:21 00:37:25 00:02:38 00:27:50
21 Gerard Van De Bovenkamp 1956 NED 1387 01:26:57 00:20:41 00:01:30 00:37:27 00:02:09 00:25:10
22 Fernando Falomir Viciano 1955 ESP 1370 01:28:46 00:17:46 00:01:41 00:36:41 00:02:08 00:30:30
23 Rudolf Langer 1955 AUT 1391 01:29:56 00:19:23 00:01:34 00:39:09 00:02:45 00:27:05
Program notes:

Technical Delegate: Eriketti Margari/GRE Head Referee: Esther Sanchez/ESP. Competition Jury: Eriketti Margari/GRE , Maryia Charkouskaya/BLR, Alicia Garcia/ESP
Distances 1500 m. (1 lap) Bike 40 km (3 laps), run 10km (3 laps)
Water temperature 26.4ºC. Air temperature 24.1ºC. Wetsuits not allowed.